GFA211 OBBI-OKKK
Flight info
| Callsign | GFA211 |
|---|---|
| Flight time | 0h 53m |
| Altitude | 24000 |
| Route | BHR075/12L BHR A453 DEBTI DEBTI1G |
| Aircraft | A210/M-VGDW/C |
Departure
| Time | 2026-04-27 15:56 |
|---|---|
| Airport | Bahrain International Airport (OBBI) |
Arrival
| Time | 2026-04-27 16:49 |
|---|---|
| Airport | Kuwait International Airport (OKKK) |
| Time | Latitude | Longitude | Altitude | Speed | Heading |
|---|---|---|---|---|---|
| 2026-04-27 15:14 | 26.27326 | 50.62457 | 18 ft | 0 kts | 213° |
| 2026-04-27 15:45 | 26.27329 | 50.62459 | 18 ft | 4 kts | 213° |
| 2026-04-27 15:45 | 26.27351 | 50.62476 | 20 ft | 4 kts | 218° |
| 2026-04-27 15:45 | 26.27368 | 50.62493 | 22 ft | 2 kts | 235° |
| 2026-04-27 15:45 | 26.27374 | 50.62505 | 22 ft | 2 kts | 264° |
| 2026-04-27 15:46 | 26.27374 | 50.62517 | 22 ft | 2 kts | 290° |
| 2026-04-27 15:46 | 26.27370 | 50.62529 | 21 ft | 2 kts | 300° |
| 2026-04-27 15:46 | 26.27364 | 50.62539 | 19 ft | 2 kts | 304° |
| 2026-04-27 15:46 | 26.27358 | 50.62549 | 20 ft | 0 kts | 305° |
| 2026-04-27 15:49 | 26.27378 | 50.62517 | 20 ft | 11 kts | 304° |
| 2026-04-27 15:49 | 26.27437 | 50.62415 | 17 ft | 18 kts | 302° |
| 2026-04-27 15:50 | 26.27502 | 50.62300 | 16 ft | 9 kts | 302° |
| 2026-04-27 15:50 | 26.27536 | 50.62240 | 16 ft | 11 kts | 302° |
| 2026-04-27 15:50 | 26.27582 | 50.62161 | 16 ft | 14 kts | 302° |
| 2026-04-27 15:50 | 26.27639 | 50.62061 | 16 ft | 16 kts | 302° |
| 2026-04-27 15:51 | 26.27697 | 50.61961 | 18 ft | 15 kts | 303° |
| 2026-04-27 15:51 | 26.27760 | 50.61853 | 17 ft | 18 kts | 303° |
| 2026-04-27 15:51 | 26.27820 | 50.61749 | 17 ft | 14 kts | 302° |
| 2026-04-27 15:51 | 26.27877 | 50.61665 | 17 ft | 15 kts | 321° |
| 2026-04-27 15:52 | 26.27968 | 50.61648 | 18 ft | 15 kts | 17° |
| 2026-04-27 15:52 | 26.28022 | 50.61734 | 18 ft | 10 kts | 106° |
| 2026-04-27 15:52 | 26.28015 | 50.61747 | 18 ft | 0 kts | 123° |
| 2026-04-27 15:55 | 26.28015 | 50.61748 | 18 ft | 2 kts | 123° |
| 2026-04-27 15:55 | 26.27981 | 50.61804 | 18 ft | 33 kts | 123° |
| 2026-04-27 15:55 | 26.27567 | 50.62526 | 17 ft | 126 kts | 123° |
| 2026-04-27 15:55 | 26.26998 | 50.63522 | 28 ft | 175 kts | 121° |
| 2026-04-27 15:56 | 26.26337 | 50.64672 | 646 ft | 177 kts | 122° |
| 2026-04-27 15:56 | 26.25820 | 50.65900 | 1345 ft | 177 kts | 97° |
| 2026-04-27 15:56 | 26.25876 | 50.67289 | 1909 ft | 189 kts | 81° |
| 2026-04-27 15:56 | 26.26126 | 50.68822 | 2282 ft | 212 kts | 78° |
| 2026-04-27 15:57 | 26.26438 | 50.70529 | 2588 ft | 237 kts | 78° |
| 2026-04-27 15:57 | 26.26810 | 50.72411 | 2960 ft | 261 kts | 72° |
| 2026-04-27 15:57 | 26.27734 | 50.74208 | 3442 ft | 280 kts | 44° |
| 2026-04-27 15:57 | 26.29447 | 50.75356 | 3803 ft | 301 kts | 13° |
| 2026-04-27 15:58 | 26.31596 | 50.75391 | 3978 ft | 321 kts | 344° |
| 2026-04-27 15:58 | 26.33678 | 50.74439 | 4004 ft | 325 kts | 330° |
| 2026-04-27 15:58 | 26.35623 | 50.73143 | 4007 ft | 326 kts | 325° |
| 2026-04-27 15:58 | 26.37496 | 50.71718 | 4008 ft | 326 kts | 323° |
| 2026-04-27 15:59 | 26.39352 | 50.70270 | 4008 ft | 326 kts | 324° |
| 2026-04-27 15:59 | 26.41227 | 50.68841 | 4009 ft | 326 kts | 324° |
| 2026-04-27 15:59 | 26.43123 | 50.67446 | 4009 ft | 327 kts | 326° |
| 2026-04-27 15:59 | 26.45044 | 50.66077 | 4034 ft | 329 kts | 326° |
| 2026-04-27 16:00 | 26.46997 | 50.64716 | 4820 ft | 332 kts | 326° |
| 2026-04-27 16:00 | 26.48296 | 50.63809 | 5404 ft | 333 kts | 324° |
| 2026-04-27 16:00 | 26.50383 | 50.61318 | 6496 ft | 331 kts | 297° |
| 2026-04-27 16:00 | 26.51401 | 50.59005 | 7325 ft | 332 kts | 293° |
| 2026-04-27 16:01 | 26.52382 | 50.56662 | 8149 ft | 334 kts | 293° |
| 2026-04-27 16:01 | 26.53394 | 50.54316 | 8970 ft | 338 kts | 297° |
| 2026-04-27 16:01 | 26.54886 | 50.52256 | 9760 ft | 347 kts | 317° |
| 2026-04-27 16:01 | 26.56993 | 50.50890 | 10503 ft | 357 kts | 338° |
| 2026-04-27 16:02 | 26.59448 | 50.50324 | 11281 ft | 363 kts | 348° |
| 2026-04-27 16:02 | 26.61946 | 50.49902 | 12065 ft | 365 kts | 348° |
| 2026-04-27 16:02 | 26.64427 | 50.49321 | 12813 ft | 364 kts | 337° |
| 2026-04-27 16:02 | 26.66648 | 50.48012 | 13553 ft | 361 kts | 323° |
| 2026-04-27 16:03 | 26.68735 | 50.46437 | 14236 ft | 363 kts | 322° |
| 2026-04-27 16:03 | 26.70826 | 50.44844 | 14912 ft | 365 kts | 322° |
| 2026-04-27 16:03 | 26.72935 | 50.43230 | 15582 ft | 368 kts | 322° |
| 2026-04-27 16:03 | 26.75054 | 50.41607 | 16253 ft | 370 kts | 322° |
| 2026-04-27 16:04 | 26.77188 | 50.39974 | 16933 ft | 373 kts | 322° |
| 2026-04-27 16:04 | 26.79338 | 50.38332 | 17599 ft | 376 kts | 322° |
| 2026-04-27 16:04 | 26.81481 | 50.36642 | 18249 ft | 377 kts | 317° |
| 2026-04-27 16:04 | 26.83418 | 50.34667 | 18815 ft | 378 kts | 313° |
| 2026-04-27 16:05 | 26.85335 | 50.32633 | 19391 ft | 381 kts | 313° |
| 2026-04-27 16:05 | 26.87264 | 50.30585 | 19955 ft | 384 kts | 312° |
| 2026-04-27 16:05 | 26.89215 | 50.28514 | 20501 ft | 388 kts | 312° |
| 2026-04-27 16:05 | 26.91181 | 50.26426 | 21025 ft | 392 kts | 312° |
| 2026-04-27 16:06 | 26.93169 | 50.24313 | 21540 ft | 395 kts | 312° |
| 2026-04-27 16:06 | 26.95172 | 50.22187 | 22049 ft | 399 kts | 312° |
| 2026-04-27 16:06 | 26.97200 | 50.20039 | 22549 ft | 402 kts | 312° |
| 2026-04-27 16:06 | 26.98552 | 50.18606 | 22888 ft | 405 kts | 312° |
| 2026-04-27 16:07 | 27.00601 | 50.16429 | 23346 ft | 408 kts | 311° |
| 2026-04-27 16:07 | 27.02668 | 50.14225 | 23695 ft | 411 kts | 311° |
| 2026-04-27 16:07 | 27.04715 | 50.12006 | 23790 ft | 402 kts | 308° |
| 2026-04-27 16:07 | 27.06521 | 50.09673 | 23815 ft | 393 kts | 306° |
| 2026-04-27 16:08 | 27.08285 | 50.07354 | 23814 ft | 390 kts | 305° |
| 2026-04-27 16:08 | 27.10048 | 50.05035 | 23818 ft | 390 kts | 305° |
| 2026-04-27 16:08 | 27.11805 | 50.02726 | 23820 ft | 389 kts | 305° |
| 2026-04-27 16:08 | 27.13562 | 50.00419 | 23819 ft | 388 kts | 305° |
| 2026-04-27 16:09 | 27.15314 | 49.98118 | 23818 ft | 387 kts | 305° |
| 2026-04-27 16:09 | 27.18803 | 49.93525 | 23816 ft | 386 kts | 305° |
| 2026-04-27 16:09 | 27.20545 | 49.91232 | 23811 ft | 385 kts | 305° |
| 2026-04-27 16:10 | 27.24020 | 49.86649 | 23811 ft | 384 kts | 305° |
| 2026-04-27 16:10 | 27.27477 | 49.82073 | 23812 ft | 384 kts | 305° |
| 2026-04-27 16:11 | 27.29207 | 49.79784 | 23812 ft | 384 kts | 305° |
| 2026-04-27 16:11 | 27.32667 | 49.75210 | 23812 ft | 384 kts | 305° |
| 2026-04-27 16:12 | 27.36122 | 49.70641 | 23810 ft | 383 kts | 305° |
| 2026-04-27 16:12 | 27.37850 | 49.68351 | 23814 ft | 383 kts | 305° |
| 2026-04-27 16:12 | 27.41300 | 49.63779 | 23812 ft | 383 kts | 305° |
| 2026-04-27 16:13 | 27.43023 | 49.61489 | 23814 ft | 383 kts | 305° |
| 2026-04-27 16:13 | 27.46461 | 49.56918 | 23811 ft | 383 kts | 305° |
| 2026-04-27 16:13 | 27.48243 | 49.54681 | 23812 ft | 387 kts | 311° |
| 2026-04-27 16:14 | 27.52457 | 49.50821 | 23812 ft | 391 kts | 316° |
| 2026-04-27 16:14 | 27.56717 | 49.47014 | 23814 ft | 391 kts | 315° |
| 2026-04-27 16:15 | 27.60950 | 49.43217 | 23807 ft | 391 kts | 315° |
| 2026-04-27 16:15 | 27.65210 | 49.39392 | 23813 ft | 392 kts | 315° |
| 2026-04-27 16:16 | 27.69477 | 49.35563 | 23808 ft | 392 kts | 315° |
| 2026-04-27 16:16 | 27.73742 | 49.31728 | 23810 ft | 392 kts | 315° |
| 2026-04-27 16:17 | 27.78005 | 49.27890 | 23812 ft | 392 kts | 315° |
| 2026-04-27 16:17 | 27.82265 | 49.24052 | 23813 ft | 392 kts | 315° |
| 2026-04-27 16:18 | 27.86525 | 49.20216 | 23811 ft | 392 kts | 316° |
| 2026-04-27 16:18 | 27.91199 | 49.16914 | 23813 ft | 398 kts | 323° |
| 2026-04-27 16:19 | 27.93592 | 49.15350 | 23764 ft | 393 kts | 323° |
| 2026-04-27 16:19 | 27.95925 | 49.13828 | 23634 ft | 381 kts | 323° |
| 2026-04-27 16:20 | 28.02707 | 49.09384 | 23214 ft | 373 kts | 323° |
| 2026-04-27 16:20 | 28.04950 | 49.07907 | 23053 ft | 372 kts | 323° |
| 2026-04-27 16:20 | 28.09412 | 49.04961 | 22742 ft | 370 kts | 323° |
| 2026-04-27 16:21 | 28.11635 | 49.03494 | 22588 ft | 369 kts | 323° |
| 2026-04-27 16:21 | 28.18268 | 48.99123 | 22203 ft | 367 kts | 323° |
| 2026-04-27 16:22 | 28.20472 | 48.97671 | 22076 ft | 366 kts | 323° |
| 2026-04-27 16:22 | 28.24854 | 48.94787 | 21512 ft | 361 kts | 323° |
| 2026-04-27 16:22 | 28.27021 | 48.93359 | 21049 ft | 359 kts | 323° |
| 2026-04-27 16:23 | 28.29171 | 48.91938 | 20597 ft | 357 kts | 323° |
| 2026-04-27 16:23 | 28.33430 | 48.89121 | 19716 ft | 352 kts | 324° |
| 2026-04-27 16:23 | 28.35542 | 48.87719 | 19279 ft | 351 kts | 324° |
| 2026-04-27 16:24 | 28.37646 | 48.86325 | 18860 ft | 349 kts | 324° |
| 2026-04-27 16:24 | 28.41823 | 48.83561 | 18021 ft | 346 kts | 325° |
| 2026-04-27 16:25 | 28.45970 | 48.80806 | 17813 ft | 346 kts | 324° |
| 2026-04-27 16:25 | 28.50102 | 48.78058 | 17135 ft | 342 kts | 325° |
| 2026-04-27 16:26 | 28.54194 | 48.75339 | 16262 ft | 339 kts | 326° |
| 2026-04-27 16:26 | 28.57922 | 48.72181 | 15785 ft | 332 kts | 311° |
| 2026-04-27 16:27 | 28.60827 | 48.68159 | 15273 ft | 327 kts | 304° |
| 2026-04-27 16:27 | 28.64937 | 48.61990 | 14068 ft | 324 kts | 304° |
| 2026-04-27 16:28 | 28.67646 | 48.57906 | 13239 ft | 322 kts | 305° |
| 2026-04-27 16:28 | 28.70326 | 48.53854 | 12410 ft | 318 kts | 304° |
| 2026-04-27 16:29 | 28.74547 | 48.48485 | 11963 ft | 296 kts | 322° |
| 2026-04-27 16:30 | 28.78036 | 48.46256 | 11721 ft | 278 kts | 328° |
| 2026-04-27 16:30 | 28.81325 | 48.44216 | 11468 ft | 260 kts | 328° |
| 2026-04-27 16:31 | 28.85933 | 48.41348 | 10776 ft | 248 kts | 328° |
| 2026-04-27 16:31 | 28.88946 | 48.39467 | 10175 ft | 246 kts | 328° |
| 2026-04-27 16:32 | 28.91944 | 48.37592 | 9557 ft | 244 kts | 328° |
| 2026-04-27 16:32 | 28.93434 | 48.36666 | 9223 ft | 244 kts | 327° |
| 2026-04-27 16:33 | 28.96403 | 48.34822 | 8550 ft | 242 kts | 327° |
| 2026-04-27 16:33 | 28.97879 | 48.33904 | 8220 ft | 241 kts | 327° |
| 2026-04-27 16:33 | 28.99353 | 48.32985 | 7896 ft | 241 kts | 327° |
| 2026-04-27 16:33 | 29.00821 | 48.32071 | 7573 ft | 240 kts | 327° |
| 2026-04-27 16:34 | 29.02288 | 48.31154 | 7252 ft | 240 kts | 327° |
| 2026-04-27 16:34 | 29.03735 | 48.30250 | 7060 ft | 233 kts | 327° |
| 2026-04-27 16:34 | 29.04669 | 48.29668 | 6916 ft | 230 kts | 326° |
| 2026-04-27 16:34 | 29.05083 | 48.29411 | 6842 ft | 229 kts | 326° |
| 2026-04-27 16:35 | 29.06378 | 48.28602 | 6569 ft | 228 kts | 326° |
| 2026-04-27 16:35 | 29.07770 | 48.27734 | 6282 ft | 228 kts | 326° |
| 2026-04-27 16:35 | 29.10545 | 48.25997 | 5678 ft | 227 kts | 326° |
| 2026-04-27 16:36 | 29.11927 | 48.25131 | 5382 ft | 227 kts | 326° |
| 2026-04-27 16:36 | 29.13311 | 48.24266 | 5079 ft | 226 kts | 326° |
| 2026-04-27 16:36 | 29.14694 | 48.23402 | 4787 ft | 226 kts | 326° |
| 2026-04-27 16:36 | 29.16074 | 48.22538 | 4494 ft | 226 kts | 326° |
| 2026-04-27 16:37 | 29.17454 | 48.21674 | 4189 ft | 226 kts | 327° |
| 2026-04-27 16:37 | 29.18828 | 48.20812 | 3900 ft | 225 kts | 327° |
| 2026-04-27 16:37 | 29.20197 | 48.19951 | 3622 ft | 224 kts | 327° |
| 2026-04-27 16:37 | 29.21567 | 48.19095 | 3355 ft | 224 kts | 327° |
| 2026-04-27 16:38 | 29.22930 | 48.18246 | 3109 ft | 222 kts | 327° |
| 2026-04-27 16:38 | 29.24285 | 48.17398 | 3008 ft | 222 kts | 327° |
| 2026-04-27 16:38 | 29.25642 | 48.16547 | 3010 ft | 223 kts | 327° |
| 2026-04-27 16:38 | 29.27004 | 48.15695 | 3008 ft | 223 kts | 327° |
| 2026-04-27 16:39 | 29.28367 | 48.14843 | 3009 ft | 223 kts | 327° |
| 2026-04-27 16:39 | 29.29732 | 48.13987 | 3006 ft | 223 kts | 327° |
| 2026-04-27 16:39 | 29.31094 | 48.13133 | 3007 ft | 223 kts | 327° |
| 2026-04-27 16:39 | 29.32454 | 48.12281 | 3012 ft | 223 kts | 328° |
| 2026-04-27 16:40 | 29.33816 | 48.11438 | 3003 ft | 218 kts | 328° |
| 2026-04-27 16:40 | 29.35132 | 48.10627 | 2841 ft | 213 kts | 328° |
| 2026-04-27 16:40 | 29.36431 | 48.09822 | 2600 ft | 211 kts | 328° |
| 2026-04-27 16:40 | 29.37717 | 48.09013 | 2499 ft | 211 kts | 328° |
| 2026-04-27 16:41 | 29.39001 | 48.08199 | 2504 ft | 212 kts | 328° |
| 2026-04-27 16:41 | 29.40291 | 48.07377 | 2509 ft | 212 kts | 326° |
| 2026-04-27 16:41 | 29.41310 | 48.06234 | 2509 ft | 204 kts | 291° |
| 2026-04-27 16:41 | 29.41600 | 48.04687 | 2518 ft | 198 kts | 268° |
| 2026-04-27 16:42 | 29.41590 | 48.03094 | 2520 ft | 200 kts | 264° |
| 2026-04-27 16:42 | 29.41532 | 48.01499 | 2524 ft | 200 kts | 264° |
| 2026-04-27 16:42 | 29.41470 | 47.99918 | 2511 ft | 199 kts | 264° |
| 2026-04-27 16:42 | 29.41405 | 47.98325 | 2501 ft | 200 kts | 264° |
| 2026-04-27 16:43 | 29.41340 | 47.96738 | 2508 ft | 198 kts | 264° |
| 2026-04-27 16:43 | 29.41280 | 47.95144 | 2501 ft | 201 kts | 264° |
| 2026-04-27 16:43 | 29.41167 | 47.93557 | 2507 ft | 197 kts | 252° |
| 2026-04-27 16:43 | 29.40457 | 47.92299 | 2502 ft | 183 kts | 214° |
| 2026-04-27 16:44 | 29.39327 | 47.91847 | 2503 ft | 168 kts | 188° |
| 2026-04-27 16:44 | 29.38189 | 47.91728 | 2497 ft | 163 kts | 185° |
| 2026-04-27 16:44 | 29.37439 | 47.91679 | 2500 ft | 162 kts | 184° |
| 2026-04-27 16:44 | 29.35955 | 47.91601 | 2500 ft | 158 kts | 184° |
| 2026-04-27 16:45 | 29.35227 | 47.91563 | 2507 ft | 158 kts | 183° |
| 2026-04-27 16:45 | 29.34133 | 47.91496 | 2439 ft | 156 kts | 184° |
| 2026-04-27 16:45 | 29.33050 | 47.91460 | 2176 ft | 156 kts | 174° |
| 2026-04-27 16:45 | 29.32035 | 47.91915 | 1892 ft | 158 kts | 156° |
| 2026-04-27 16:46 | 29.31025 | 47.92448 | 1552 ft | 158 kts | 155° |
| 2026-04-27 16:46 | 29.30076 | 47.92949 | 1315 ft | 144 kts | 155° |
| 2026-04-27 16:46 | 29.29196 | 47.93415 | 1111 ft | 136 kts | 154° |
| 2026-04-27 16:46 | 29.28349 | 47.93865 | 949 ft | 133 kts | 153° |
| 2026-04-27 16:47 | 29.27508 | 47.94312 | 836 ft | 132 kts | 153° |
| 2026-04-27 16:47 | 29.26676 | 47.94755 | 704 ft | 131 kts | 152° |
| 2026-04-27 16:47 | 29.25850 | 47.95195 | 560 ft | 131 kts | 152° |
| 2026-04-27 16:47 | 29.25023 | 47.95638 | 384 ft | 131 kts | 152° |
| 2026-04-27 16:48 | 29.24199 | 47.96081 | 239 ft | 131 kts | 154° |
| 2026-04-27 16:48 | 29.23415 | 47.96495 | 163 ft | 105 kts | 155° |
| 2026-04-27 16:48 | 29.22871 | 47.96781 | 162 ft | 75 kts | 155° |
| 2026-04-27 16:49 | 29.22101 | 47.97192 | 164 ft | 50 kts | 154° |
| 2026-04-27 16:49 | 29.21934 | 47.97413 | 164 ft | 23 kts | 112° |
| 2026-04-27 16:49 | 29.21980 | 47.97498 | 165 ft | 14 kts | 350° |
| 2026-04-27 16:49 | 29.22057 | 47.97462 | 165 ft | 10 kts | 335° |
| 2026-04-27 16:50 | 29.22114 | 47.97432 | 165 ft | 8 kts | 335° |
| 2026-04-27 16:50 | 29.22164 | 47.97405 | 165 ft | 8 kts | 335° |
| 2026-04-27 16:50 | 29.22213 | 47.97379 | 166 ft | 8 kts | 334° |
| 2026-04-27 16:50 | 29.22278 | 47.97343 | 166 ft | 12 kts | 334° |
| 2026-04-27 16:51 | 29.22366 | 47.97296 | 166 ft | 16 kts | 336° |
| 2026-04-27 16:51 | 29.22485 | 47.97233 | 166 ft | 21 kts | 334° |
| 2026-04-27 16:51 | 29.22637 | 47.97151 | 166 ft | 27 kts | 335° |
| 2026-04-27 16:51 | 29.22819 | 47.97055 | 167 ft | 31 kts | 334° |
| 2026-04-27 16:52 | 29.22986 | 47.96966 | 167 ft | 24 kts | 335° |
| 2026-04-27 16:52 | 29.23147 | 47.96884 | 167 ft | 26 kts | 335° |
| 2026-04-27 16:52 | 29.23325 | 47.96789 | 168 ft | 30 kts | 335° |
| 2026-04-27 16:52 | 29.23442 | 47.96730 | 167 ft | 15 kts | 334° |
| 2026-04-27 16:53 | 29.23523 | 47.96741 | 168 ft | 14 kts | 71° |
| 2026-04-27 16:53 | 29.23511 | 47.96857 | 169 ft | 16 kts | 98° |
| 2026-04-27 16:53 | 29.23494 | 47.96999 | 169 ft | 20 kts | 94° |
| 2026-04-27 16:53 | 29.23540 | 47.97157 | 170 ft | 23 kts | 65° |
| 2026-04-27 16:54 | 29.23607 | 47.97330 | 170 ft | 25 kts | 67° |
| 2026-04-27 16:54 | 29.23695 | 47.97453 | 170 ft | 20 kts | 7° |
| 2026-04-27 16:54 | 29.23812 | 47.97404 | 170 ft | 17 kts | 329° |
| 2026-04-27 16:54 | 29.23811 | 47.97321 | 170 ft | 3 kts | 245° |
| 2026-04-27 16:55 | 29.23809 | 47.97318 | 170 ft | 1 kts | 244° |
| 2026-04-27 16:55 | 29.23804 | 47.97305 | 170 ft | 2 kts | 245° |
| 2026-04-27 16:55 | 29.23801 | 47.97298 | 170 ft | 0 kts | 244° |